Time;durP1;ratioP1;P1;durP2;ratioP2;P2;SDS_P1;SDS_P2;PMS_P1;PMS_P2;Temp;Humidity;BMP_temperature;BMP_pressure;BME280_temperature;BME280_humidity;BME280_pressure;Samples;Min_cycle;Max_cycle;Signal;HPM_P1;HPM_P2
2023/09/06 00:00:00;;;;;;;18.63;7.10;;;24.80;58.20;;;;;;350934;28;936;-54
2023/09/06 00:00:16;;;;;;;17.77;6.90;;;24.80;58.20;;;;;;350913;28;1074;-54
2023/09/06 00:00:32;;;;;;;18.10;7.00;;;24.90;58.30;;;;;;350948;28;947;-54
2023/09/06 00:00:45;;;;;;;18.55;6.68;;;24.90;58.20;;;;;;350917;28;2614;-55
2023/09/06 00:00:56;;;;;;;18.90;6.80;;;24.80;58.20;;;;;;351000;28;975;-54
2023/09/06 00:01:07;;;;;;;19.93;7.23;;;24.80;58.20;;;;;;350877;28;1111;-54
2023/09/06 00:01:18;;;;;;;18.88;7.20;;;24.80;58.20;;;;;;350953;28;1531;-54
2023/09/06 00:01:30;;;;;;;22.30;7.43;;;24.90;58.20;;;;;;350898;28;954;-53
2023/09/06 00:01:41;;;;;;;21.63;7.28;;;24.90;58.20;;;;;;351025;28;848;-53
2023/09/06 00:01:51;;;;;;;22.63;7.55;;;24.80;58.10;;;;;;350979;28;1050;-54
2023/09/06 00:02:04;;;;;;;19.87;7.37;;;24.80;58.10;;;;;;350985;28;1035;-54
2023/09/06 00:02:15;;;;;;;20.80;7.78;;;24.80;58.00;;;;;;350957;28;1303;-54
2023/09/06 00:02:25;;;;;;;21.85;7.90;;;24.90;58.00;;;;;;350963;28;1170;-54
2023/09/06 00:02:36;;;;;;;22.20;7.90;;;24.80;58.00;;;;;;350875;28;1658;-54
2023/09/06 00:02:47;;;;;;;22.05;7.95;;;24.80;58.00;;;;;;350988;28;1154;-55
2023/09/06 00:02:58;;;;;;;22.23;7.47;;;24.90;58.00;;;;;;350935;28;1142;-54
2023/09/06 00:03:10;;;;;;;24.25;7.78;;;24.80;57.90;;;;;;350975;28;2761;-53
2023/09/06 00:03:21;;;;;;;21.38;7.30;;;24.80;57.90;;;;;;350926;28;998;-55
2023/09/06 00:03:32;;;;;;;21.17;7.15;;;24.80;57.90;;;;;;351020;28;991;-53
2023/09/06 00:03:43;;;;;;;18.88;6.85;;;24.90;57.90;;;;;;350900;28;1116;-55
2023/09/06 00:03:55;;;;;;;20.27;7.00;;;24.80;57.80;;;;;;350975;28;1214;-54
2023/09/06 00:04:06;;;;;;;20.55;7.28;;;24.80;57.80;;;;;;350906;28;1197;-54
2023/09/06 00:04:17;;;;;;;18.80;7.20;;;24.80;57.80;;;;;;351029;28;1026;-54
2023/09/06 00:04:27;;;;;;;20.73;6.63;;;24.80;57.80;;;;;;350947;28;1386;-53
2023/09/06 00:04:38;;;;;;;18.65;6.38;;;24.80;57.80;;;;;;350967;28;1083;-54
2023/09/06 00:04:49;;;;;;;17.90;6.27;;;24.80;57.70;;;;;;350913;28;901;-54
2023/09/06 00:05:00;;;;;;;16.95;6.20;;;24.90;57.70;;;;;;351007;28;836;-54
2023/09/06 00:05:10;;;;;;;17.83;6.28;;;24.80;57.80;;;;;;351039;28;856;-54
2023/09/06 00:05:21;;;;;;;19.25;6.68;;;24.80;57.80;;;;;;350971;28;1815;-53
2023/09/06 00:05:32;;;;;;;20.92;7.15;;;24.80;57.90;;;;;;350922;28;1547;-54
2023/09/06 00:05:43;;;;;;;21.17;7.27;;;24.90;58.00;;;;;;351068;28;765;-52
2023/09/06 00:05:54;;;;;;;20.85;7.07;;;24.80;58.10;;;;;;350939;28;883;-54
2023/09/06 00:06:05;;;;;;;19.50;6.93;;;24.80;58.10;;;;;;350991;28;1502;-53
2023/09/06 00:06:16;;;;;;;18.17;6.63;;;24.80;58.00;;;;;;350989;28;1138;-54
2023/09/06 00:06:27;;;;;;;18.92;6.70;;;24.80;58.00;;;;;;350845;28;1099;-54
2023/09/06 00:06:38;;;;;;;19.55;6.93;;;24.80;57.90;;;;;;351048;28;1067;-54
2023/09/06 00:06:49;;;;;;;21.43;7.20;;;24.80;58.10;;;;;;350973;28;2434;-53
2023/09/06 00:07:00;;;;;;;18.65;7.03;;;24.80;58.10;;;;;;350921;28;1173;-54
2023/09/06 00:07:10;;;;;;;17.48;6.90;;;24.80;58.00;;;;;;351042;28;964;-55
2023/09/06 00:07:23;;;;;;;15.48;6.47;;;24.80;58.00;;;;;;350949;28;1593;-54
2023/09/06 00:07:33;;;;;;;15.60;6.40;;;24.80;58.10;;;;;;350867;28;1360;-53
2023/09/06 00:07:44;;;;;;;16.23;6.53;;;24.80;58.10;;;;;;350973;28;1133;-54
2023/09/06 00:07:56;;;;;;;16.60;6.63;;;24.90;58.20;;;;;;351011;28;979;-54
2023/09/06 00:08:08;;;;;;;19.17;7.30;;;24.80;58.20;;;;;;350939;28;1481;-54
2023/09/06 00:08:19;;;;;;;18.55;7.68;;;24.80;58.30;;;;;;351037;28;1665;-54
2023/09/06 00:08:34;;;;;;;18.30;7.63;;;24.80;58.20;;;;;;350935;28;900;-55
2023/09/06 00:08:45;;;;;;;20.13;7.60;;;24.80;58.20;;;;;;350958;28;1445;-54
2023/09/06 00:08:56;;;;;;;20.20;7.47;;;24.80;58.10;;;;;;350958;28;908;-54
2023/09/06 00:09:09;;;;;;;20.17;7.05;;;24.80;58.00;;;;;;351005;28;836;-53
2023/09/06 00:09:19;;;;;;;20.75;6.80;;;24.80;58.00;;;;;;350945;28;1016;-53
2023/09/06 00:09:30;;;;;;;19.87;6.17;;;24.80;58.10;;;;;;351036;28;1011;-54
2023/09/06 00:09:41;;;;;;;19.40;5.95;;;24.80;57.90;;;;;;350939;28;1020;-53
2023/09/06 00:09:52;;;;;;;17.70;5.85;;;24.80;58.00;;;;;;350942;28;960;-55
2023/09/06 00:10:02;;;;;;;17.98;5.97;;;24.80;58.10;;;;;;350984;28;1277;-53
2023/09/06 00:10:14;;;;;;;17.13;6.00;;;24.80;58.20;;;;;;351002;28;1776;-54
2023/09/06 00:10:25;;;;;;;18.08;6.40;;;24.80;58.10;;;;;;350931;28;2104;-53
2023/09/06 00:10:39;;;;;;;18.88;6.47;;;24.80;58.00;;;;;;351007;28;881;-53
2023/09/06 00:10:50;;;;;;;17.67;6.18;;;24.80;57.90;;;;;;351000;28;881;-55
2023/09/06 00:11:05;;;;;;;17.13;6.37;;;24.80;57.90;;;;;;351029;28;952;-53
2023/09/06 00:11:16;;;;;;;16.50;6.47;;;24.80;57.90;;;;;;350975;28;1146;-52
2023/09/06 00:11:27;;;;;;;19.45;6.60;;;24.80;58.00;;;;;;350965;28;1785;-54
2023/09/06 00:11:39;;;;;;;19.73;6.70;;;24.80;58.00;;;;;;350952;28;1292;-52
2023/09/06 00:11:50;;;;;;;18.55;7.03;;;24.80;58.00;;;;;;350964;28;1063;-53
2023/09/06 00:12:01;;;;;;;18.20;7.50;;;24.80;57.80;;;;;;350945;28;1095;-54
2023/09/06 00:12:12;;;;;;;19.02;7.40;;;24.90;57.80;;;;;;351002;28;1189;-54
2023/09/06 00:12:23;;;;;;;17.63;6.83;;;24.80;57.70;;;;;;350879;28;1989;-54
2023/09/06 00:12:33;;;;;;;19.67;7.20;;;24.80;57.80;;;;;;350956;28;868;-54
2023/09/06 00:12:45;;;;;;;21.65;7.22;;;24.80;57.80;;;;;;351041;28;869;-53
2023/09/06 00:12:56;;;;;;;21.40;7.40;;;24.80;57.70;;;;;;350931;28;964;-55
2023/09/06 00:13:08;;;;;;;18.20;6.93;;;24.90;57.80;;;;;;350970;28;1530;-53
2023/09/06 00:13:18;;;;;;;16.63;7.20;;;24.80;57.70;;;;;;351012;28;992;-54
2023/09/06 00:13:31;;;;;;;17.45;7.85;;;24.80;57.60;;;;;;350914;28;1474;-53
2023/09/06 00:13:42;;;;;;;16.58;7.55;;;24.80;57.60;;;;;;350910;28;1009;-54
2023/09/06 00:13:53;;;;;;;16.45;7.13;;;24.80;57.60;;;;;;350996;28;892;-55
2023/09/06 00:14:04;;;;;;;18.73;7.03;;;24.80;57.60;;;;;;350996;28;972;-54
2023/09/06 00:14:15;;;;;;;19.92;7.18;;;24.80;57.60;;;;;;351041;28;1034;-54
2023/09/06 00:14:29;;;;;;;20.13;6.97;;;24.80;57.60;;;;;;351013;28;869;-54
2023/09/06 00:14:40;;;;;;;19.52;7.25;;;24.80;57.60;;;;;;350956;28;979;-54
2023/09/06 00:14:50;;;;;;;20.85;7.43;;;24.80;57.60;;;;;;351019;28;896;-54
2023/09/06 00:15:01;;;;;;;20.58;7.25;;;24.90;57.60;;;;;;350931;28;1062;-54
2023/09/06 00:15:13;;;;;;;19.98;7.20;;;24.80;57.60;;;;;;350958;28;1414;-55
2023/09/06 00:15:24;;;;;;;19.10;7.30;;;24.90;57.50;;;;;;350943;28;1001;-53
2023/09/06 00:15:35;;;;;;;18.40;7.57;;;24.80;57.50;;;;;;350910;28;2576;-53
2023/09/06 00:15:47;;;;;;;19.45;7.63;;;24.80;57.50;;;;;;350948;28;1008;-53
2023/09/06 00:15:57;;;;;;;19.80;7.72;;;24.80;57.50;;;;;;350939;28;1447;-52
2023/09/06 00:16:08;;;;;;;18.90;7.40;;;24.80;57.50;;;;;;350904;28;1135;-54
2023/09/06 00:16:19;;;;;;;18.83;7.30;;;24.80;57.40;;;;;;350951;28;1102;-55
2023/09/06 00:16:30;;;;;;;18.83;7.30;;;24.90;57.30;;;;;;350865;28;1153;-54
2023/09/06 00:16:41;;;;;;;18.00;7.45;;;24.80;57.50;;;;;;351033;28;979;-54
2023/09/06 00:16:52;;;;;;;16.33;7.80;;;24.80;57.60;;;;;;350943;28;999;-53
2023/09/06 00:17:03;;;;;;;16.65;7.22;;;24.90;57.50;;;;;;350967;28;1087;-55
2023/09/06 00:17:14;;;;;;;19.35;7.05;;;24.90;57.50;;;;;;350887;28;1572;-54
2023/09/06 00:17:24;;;;;;;20.53;6.70;;;24.90;57.30;;;;;;351041;28;1031;-54
2023/09/06 00:17:37;;;;;;;20.77;6.78;;;24.90;57.50;;;;;;350913;28;1070;-54
2023/09/06 00:17:48;;;;;;;19.50;6.72;;;24.90;57.60;;;;;;350958;28;1198;-54
2023/09/06 00:17:59;;;;;;;20.02;7.03;;;24.90;57.60;;;;;;350925;28;899;-54
2023/09/06 00:18:10;;;;;;;18.67;7.18;;;24.90;57.50;;;;;;350960;28;1538;-54
2023/09/06 00:18:23;;;;;;;19.45;7.22;;;24.90;57.60;;;;;;350816;28;1405;-53
2023/09/06 00:18:35;;;;;;;18.35;7.03;;;24.90;57.60;;;;;;350901;28;928;-53
2023/09/06 00:18:45;;;;;;;19.77;6.85;;;24.90;57.50;;;;;;350788;28;1839;-54
2023/09/06 00:18:59;;;;;;;20.23;6.90;;;24.90;57.40;;;;;;350915;28;817;-54
2023/09/06 00:19:10;;;;;;;18.27;6.75;;;24.90;57.40;;;;;;350800;28;1619;-54
2023/09/06 00:19:21;;;;;;;17.73;6.30;;;24.90;57.40;;;;;;350882;28;1115;-54
2023/09/06 00:19:31;;;;;;;18.90;6.68;;;24.90;57.30;;;;;;350833;28;964;-54
2023/09/06 00:19:42;;;;;;;19.67;6.80;;;24.90;57.30;;;;;;350902;28;1437;-54
2023/09/06 00:19:53;;;;;;;19.17;6.85;;;24.90;57.20;;;;;;350855;28;1018;-54
2023/09/06 00:20:36;;;;;;;18.15;6.50;;;24.90;57.30;;;;;;350950;28;860;-54
2023/09/06 00:20:47;;;;;;;21.23;6.82;;;24.90;57.40;;;;;;350922;28;1613;-53
2023/09/06 00:20:57;;;;;;;21.98;6.93;;;24.90;57.40;;;;;;350899;28;1553;-55
2023/09/06 00:21:08;;;;;;;20.02;6.75;;;24.90;57.40;;;;;;351012;28;1066;-54
2023/09/06 00:21:19;;;;;;;21.90;6.83;;;24.90;57.40;;;;;;350921;28;1023;-55
2023/09/06 00:21:30;;;;;;;20.45;6.68;;;24.90;57.20;;;;;;350848;28;1099;-54
2023/09/06 00:21:43;;;;;;;20.25;6.72;;;24.90;57.20;;;;;;350818;28;1232;-54
2023/09/06 00:21:54;;;;;;;21.20;6.55;;;24.90;57.20;;;;;;350931;28;888;-53
2023/09/06 00:22:04;;;;;;;23.35;6.85;;;24.90;57.20;;;;;;350908;28;845;-53
2023/09/06 00:22:15;;;;;;;21.73;6.85;;;24.90;57.10;;;;;;350943;28;936;-54
2023/09/06 00:22:26;;;;;;;22.13;7.20;;;24.90;57.10;;;;;;350830;28;945;-53
2023/09/06 00:22:38;;;;;;;23.50;7.57;;;24.90;56.90;;;;;;350865;28;1091;-53
2023/09/06 00:23:00;;;;;;;20.45;7.55;;;24.90;56.80;;;;;;350934;28;932;-54
2023/09/06 00:23:12;;;;;;;16.83;7.28;;;25.00;56.70;;;;;;350768;28;1185;-53
2023/09/06 00:23:24;;;;;;;17.42;7.40;;;24.90;56.60;;;;;;350968;28;1801;-54
2023/09/06 00:23:35;;;;;;;18.63;7.97;;;24.90;56.50;;;;;;350961;28;1067;-53
2023/09/06 00:23:46;;;;;;;17.48;7.25;;;25.00;56.70;;;;;;350988;28;888;-54
2023/09/06 00:23:58;;;;;;;16.20;6.90;;;25.00;56.70;;;;;;350940;28;924;-53
2023/09/06 00:24:12;;;;;;;15.43;6.07;;;24.90;56.70;;;;;;351042;28;911;-53
2023/09/06 00:24:23;;;;;;;18.83;6.18;;;25.00;56.70;;;;;;350909;28;1173;-53
2023/09/06 00:24:34;;;;;;;20.00;6.63;;;24.90;56.70;;;;;;350915;28;1437;-54
2023/09/06 00:24:44;;;;;;;19.05;6.93;;;24.90;56.70;;;;;;350889;28;2509;-53
2023/09/06 00:24:57;;;;;;;17.88;7.07;;;25.00;56.80;;;;;;350998;28;1043;-53
2023/09/06 00:25:08;;;;;;;15.63;6.28;;;25.00;56.80;;;;;;350962;28;1114;-55
2023/09/06 00:25:19;;;;;;;15.70;6.03;;;25.00;56.90;;;;;;351022;28;992;-54
2023/09/06 00:25:31;;;;;;;16.10;6.20;;;25.00;56.90;;;;;;350869;28;1094;-54
2023/09/06 00:25:41;;;;;;;17.45;6.38;;;25.00;56.90;;;;;;350969;28;1134;-57
2023/09/06 00:25:53;;;;;;;20.05;6.72;;;25.00;56.80;;;;;;350965;28;1498;-54
2023/09/06 00:26:04;;;;;;;19.67;6.70;;;25.00;56.80;;;;;;350987;28;949;-54
2023/09/06 00:26:15;;;;;;;19.02;6.95;;;25.00;56.70;;;;;;350916;28;1562;-53
2023/09/06 00:26:26;;;;;;;17.05;6.60;;;25.00;56.60;;;;;;350934;28;1449;-53
2023/09/06 00:26:37;;;;;;;18.58;6.82;;;25.00;56.50;;;;;;350882;28;1097;-54
2023/09/06 00:26:48;;;;;;;16.77;6.50;;;25.00;56.50;;;;;;350955;28;1368;-54
2023/09/06 00:27:03;;;;;;;17.10;6.30;;;25.00;56.50;;;;;;351001;28;1505;-54
2023/09/06 00:27:14;;;;;;;17.52;6.13;;;25.00;56.60;;;;;;350873;28;1059;-53
2023/09/06 00:27:25;;;;;;;18.90;6.55;;;25.00;56.60;;;;;;350977;28;1022;-55
2023/09/06 00:27:35;;;;;;;19.88;6.85;;;25.00;56.60;;;;;;351059;28;1058;-53
2023/09/06 00:27:46;;;;;;;20.20;6.87;;;25.00;56.70;;;;;;350888;28;1550;-55
2023/09/06 00:27:59;;;;;;;20.15;6.47;;;25.00;56.70;;;;;;351005;28;868;-54
2023/09/06 00:28:10;;;;;;;22.27;6.35;;;25.00;56.70;;;;;;350926;28;1105;-54
2023/09/06 00:28:23;;;;;;;21.25;6.43;;;25.00;56.70;;;;;;350897;28;1098;-54
2023/09/06 00:28:34;;;;;;;19.15;6.20;;;25.00;56.70;;;;;;350988;28;1030;-54
2023/09/06 00:28:47;;;;;;;19.17;5.90;;;25.00;56.70;;;;;;351020;28;987;-54
2023/09/06 00:28:58;;;;;;;20.05;6.20;;;25.00;56.60;;;;;;350822;28;1833;-54
2023/09/06 00:29:09;;;;;;;18.20;6.20;;;25.00;56.70;;;;;;351000;28;947;-52
2023/09/06 00:29:21;;;;;;;19.98;6.60;;;25.00;56.60;;;;;;351023;28;852;-55
2023/09/06 00:29:32;;;;;;;19.80;6.53;;;25.00;56.70;;;;;;350896;28;2531;-55
2023/09/06 00:29:46;;;;;;;19.27;6.15;;;25.00;56.60;;;;;;351007;28;908;-54
2023/09/06 00:29:56;;;;;;;18.00;6.22;;;25.00;56.70;;;;;;351007;28;856;-53
2023/09/06 00:30:07;;;;;;;18.20;6.40;;;25.00;56.70;;;;;;350948;28;884;-54
2023/09/06 00:30:18;;;;;;;17.55;6.50;;;25.00;56.80;;;;;;351028;28;911;-58
2023/09/06 00:30:30;;;;;;;17.38;6.80;;;25.00;56.80;;;;;;351012;28;1034;-55
2023/09/06 00:30:44;;;;;;;19.08;7.47;;;25.00;56.80;;;;;;350968;28;1110;-54
2023/09/06 00:30:57;;;;;;;20.33;7.45;;;25.00;56.70;;;;;;350900;28;1110;-54
2023/09/06 00:31:07;;;;;;;19.58;7.45;;;25.00;56.80;;;;;;351007;28;948;-54
2023/09/06 00:31:18;;;;;;;22.23;7.57;;;25.00;56.80;;;;;;350959;28;1102;-55
2023/09/06 00:31:29;;;;;;;21.42;7.25;;;25.00;56.70;;;;;;350892;28;1054;-54
2023/09/06 00:31:40;;;;;;;21.90;7.53;;;25.00;56.70;;;;;;351008;28;1002;-54
2023/09/06 00:31:50;;;;;;;18.98;7.97;;;25.00;56.70;;;;;;351018;28;1066;-54
2023/09/06 00:32:01;;;;;;;17.40;8.23;;;25.00;56.70;;;;;;350992;28;1834;-53
2023/09/06 00:32:12;;;;;;;16.38;7.60;;;25.00;56.70;;;;;;350918;28;918;-54
2023/09/06 00:32:22;;;;;;;17.10;7.03;;;25.00;56.70;;;;;;351007;28;907;-53
2023/09/06 00:32:33;;;;;;;18.73;6.70;;;25.00;56.70;;;;;;350756;28;2054;-53
2023/09/06 00:32:52;;;;;;;22.23;6.95;;;25.10;56.70;;;;;;351019;28;903;-54
2023/09/06 00:33:06;;;;;;;21.27;7.63;;;25.00;56.70;;;;;;350971;28;1117;-54
2023/09/06 00:33:17;;;;;;;17.30;7.03;;;25.00;56.70;;;;;;350995;28;995;-53
2023/09/06 00:33:33;;;;;;;17.50;6.93;;;25.00;56.70;;;;;;350961;28;1014;-54
2023/09/06 00:33:44;;;;;;;15.77;6.18;;;25.00;56.70;;;;;;350947;28;1738;-54
2023/09/06 00:33:54;;;;;;;16.38;6.60;;;25.00;56.60;;;;;;350980;28;1006;-54
2023/09/06 00:34:05;;;;;;;18.33;6.93;;;25.00;56.70;;;;;;351019;28;1824;-53
2023/09/06 00:34:16;;;;;;;18.13;7.13;;;25.00;56.70;;;;;;350948;28;1021;-54
2023/09/06 00:34:27;;;;;;;16.15;6.78;;;25.00;56.80;;;;;;350950;28;1424;-52
2023/09/06 00:34:37;;;;;;;16.43;6.60;;;25.10;56.80;;;;;;350955;28;1590;-54
2023/09/06 00:34:48;;;;;;;19.70;7.03;;;25.10;56.70;;;;;;350967;28;1003;-53
2023/09/06 00:34:59;;;;;;;21.45;7.15;;;25.00;56.70;;;;;;350871;28;1440;-53
2023/09/06 00:35:09;;;;;;;20.77;7.22;;;25.00;56.70;;;;;;350995;28;1082;-53
2023/09/06 00:35:23;;;;;;;20.00;6.50;;;25.00;56.60;;;;;;351006;28;801;-53
2023/09/06 00:35:34;;;;;;;21.75;6.30;;;25.00;56.70;;;;;;351001;28;1011;-53
2023/09/06 00:35:45;;;;;;;21.35;6.65;;;25.00;56.70;;;;;;350883;28;2610;-54
2023/09/06 00:35:55;;;;;;;20.45;6.70;;;25.00;56.80;;;;;;351001;28;825;-53
2023/09/06 00:36:06;;;;;;;20.07;6.73;;;25.10;56.90;;;;;;350982;28;848;-53
2023/09/06 00:36:17;;;;;;;16.88;6.60;;;25.00;56.80;;;;;;350957;28;1085;-54
2023/09/06 00:36:29;;;;;;;18.13;6.72;;;25.00;56.80;;;;;;350984;28;1042;-54
2023/09/06 00:36:40;;;;;;;18.75;6.78;;;25.00;56.80;;;;;;350950;28;1127;-53
2023/09/06 00:36:50;;;;;;;18.23;6.47;;;25.00;56.90;;;;;;350871;28;1051;-52
2023/09/06 00:37:02;;;;;;;18.43;6.97;;;25.00;56.90;;;;;;351048;28;846;-54
2023/09/06 00:37:13;;;;;;;18.98;7.20;;;25.10;56.90;;;;;;350966;28;1052;-54
2023/09/06 00:37:36;;;;;;;21.02;6.97;;;25.10;56.80;;;;;;350826;28;1428;-53
2023/09/06 00:37:47;;;;;;;18.23;6.57;;;25.10;56.80;;;;;;350958;28;1103;-54
2023/09/06 00:38:05;;;;;;;17.10;6.70;;;25.00;56.80;;;;;;350880;28;1047;-55
2023/09/06 00:38:15;;;;;;;19.13;7.15;;;25.00;56.80;;;;;;350948;28;1070;-53
2023/09/06 00:38:28;;;;;;;20.42;7.25;;;25.00;56.80;;;;;;350935;28;1306;-53
2023/09/06 00:38:39;;;;;;;20.42;6.70;;;25.10;56.80;;;;;;350950;28;1094;-53
2023/09/06 00:38:50;;;;;;;20.10;6.70;;;25.10;56.80;;;;;;350959;28;1219;-56
2023/09/06 00:39:00;;;;;;;18.13;6.55;;;25.10;56.60;;;;;;351018;28;912;-54
2023/09/06 00:39:11;;;;;;;21.05;6.63;;;25.10;56.60;;;;;;350876;28;1093;-53
2023/09/06 00:39:23;;;;;;;20.90;6.73;;;25.10;56.60;;;;;;351008;28;1808;-54
2023/09/06 00:39:34;;;;;;;22.98;6.72;;;25.10;56.60;;;;;;350958;28;1031;-55
2023/09/06 00:39:45;;;;;;;20.70;6.68;;;25.10;56.60;;;;;;350943;28;1059;-54
2023/09/06 00:39:55;;;;;;;20.75;6.70;;;25.10;56.60;;;;;;351107;28;1504;-55
2023/09/06 00:40:21;;;;;;;21.23;6.72;;;25.10;56.50;;;;;;351253;28;836;-53
2023/09/06 00:40:37;;;;;;;15.30;6.03;;;25.10;56.50;;;;;;351188;28;1205;-54
2023/09/06 00:40:53;;;;;;;14.60;6.25;;;25.10;56.50;;;;;;351269;28;991;-54
2023/09/06 00:41:03;;;;;;;18.50;6.47;;;25.10;56.50;;;;;;351214;28;1086;-53
2023/09/06 00:41:14;;;;;;;22.00;6.32;;;25.10;56.50;;;;;;351125;28;1106;-54
2023/09/06 00:41:26;;;;;;;21.98;6.43;;;25.10;56.50;;;;;;351272;28;900;-54
2023/09/06 00:41:41;;;;;;;21.38;6.97;;;25.10;56.40;;;;;;351183;28;1123;-54
2023/09/06 00:41:52;;;;;;;20.48;7.80;;;25.10;56.40;;;;;;351239;28;1204;-53
2023/09/06 00:42:03;;;;;;;21.70;8.02;;;25.10;56.40;;;;;;351146;28;1009;-54
2023/09/06 00:42:13;;;;;;;18.52;7.28;;;25.10;56.40;;;;;;351246;28;1039;-54
2023/09/06 00:42:30;;;;;;;17.53;6.83;;;25.10;56.40;;;;;;351169;28;1588;-54
2023/09/06 00:42:40;;;;;;;15.80;6.65;;;25.10;56.40;;;;;;351207;28;1125;-54
2023/09/06 00:43:02;;;;;;;15.65;6.38;;;25.10;56.30;;;;;;351232;28;959;-53
2023/09/06 00:43:12;;;;;;;17.27;7.20;;;25.10;56.30;;;;;;351201;28;979;-53
2023/09/06 00:43:23;;;;;;;17.02;7.30;;;25.10;56.40;;;;;;351202;28;1094;-53
2023/09/06 00:43:34;;;;;;;17.63;7.20;;;25.10;56.40;;;;;;351201;28;983;-54
2023/09/06 00:43:45;;;;;;;19.42;7.40;;;25.10;56.40;;;;;;351204;28;979;-54
2023/09/06 00:43:55;;;;;;;18.47;7.53;;;25.10;56.40;;;;;;351138;28;1011;-53
2023/09/06 00:44:08;;;;;;;16.97;7.53;;;25.10;56.40;;;;;;351237;28;1828;-53
2023/09/06 00:44:19;;;;;;;15.82;6.85;;;25.10;56.40;;;;;;351267;28;1016;-53
2023/09/06 00:44:30;;;;;;;18.10;7.13;;;25.10;56.40;;;;;;351257;28;879;-54
2023/09/06 00:44:40;;;;;;;19.33;7.22;;;25.10;56.40;;;;;;351254;28;844;-54
2023/09/06 00:44:51;;;;;;;18.40;7.00;;;25.10;56.30;;;;;;351108;28;1099;-53
2023/09/06 00:45:02;;;;;;;17.40;6.88;;;25.10;56.30;;;;;;351254;28;964;-53
2023/09/06 00:45:13;;;;;;;16.00;6.82;;;25.10;56.20;;;;;;351235;28;1656;-54
2023/09/06 00:45:26;;;;;;;17.90;7.20;;;25.10;56.20;;;;;;351160;28;1423;-54
2023/09/06 00:45:38;;;;;;;18.20;6.75;;;25.10;56.20;;;;;;351166;28;1501;-54
2023/09/06 00:45:50;;;;;;;18.77;6.70;;;25.20;56.10;;;;;;351153;28;995;-53
2023/09/06 00:46:07;;;;;;;18.52;6.47;;;25.10;56.00;;;;;;351254;28;880;-54
2023/09/06 00:46:19;;;;;;;18.27;6.68;;;25.10;56.00;;;;;;351197;28;1122;-53
2023/09/06 00:46:30;;;;;;;18.33;7.15;;;25.10;56.00;;;;;;351211;28;1955;-54
2023/09/06 00:46:40;;;;;;;18.23;7.45;;;25.10;56.00;;;;;;351121;28;1434;-54
2023/09/06 00:46:51;;;;;;;20.95;7.43;;;25.10;56.00;;;;;;351212;28;1106;-54
2023/09/06 00:47:02;;;;;;;21.50;6.83;;;25.10;56.00;;;;;;351293;28;828;-54
2023/09/06 00:47:13;;;;;;;19.95;6.22;;;25.10;55.90;;;;;;351137;28;1111;-54
2023/09/06 00:47:24;;;;;;;17.95;6.18;;;25.10;55.80;;;;;;351264;28;848;-53
2023/09/06 00:47:36;;;;;;;17.52;6.50;;;25.10;55.90;;;;;;351182;28;1043;-54
2023/09/06 00:47:47;;;;;;;20.38;6.72;;;25.10;55.80;;;;;;351185;28;1133;-53
2023/09/06 00:47:58;;;;;;;20.42;6.78;;;25.10;55.80;;;;;;351206;28;1263;-53
2023/09/06 00:48:11;;;;;;;19.50;6.70;;;25.10;55.80;;;;;;351219;28;1019;-53
2023/09/06 00:48:23;;;;;;;17.10;6.50;;;25.10;55.70;;;;;;351167;28;998;-53
2023/09/06 00:48:35;;;;;;;18.35;6.47;;;25.10;55.70;;;;;;351167;28;995;-53
2023/09/06 00:48:50;;;;;;;18.52;6.47;;;25.10;55.70;;;;;;351175;28;1013;-53
2023/09/06 00:49:02;;;;;;;18.33;6.40;;;25.10;55.60;;;;;;351236;28;912;-55
2023/09/06 00:49:13;;;;;;;18.55;6.35;;;25.10;55.50;;;;;;351167;28;1915;-54
2023/09/06 00:49:24;;;;;;;18.85;6.45;;;25.10;55.50;;;;;;351222;28;1348;-53
2023/09/06 00:49:35;;;;;;;20.73;6.30;;;25.10;55.50;;;;;;351228;28;931;-53
2023/09/06 00:49:45;;;;;;;18.27;6.20;;;25.20;55.50;;;;;;351178;28;879;-53
2023/09/06 00:49:56;;;;;;;19.35;6.20;;;25.10;55.40;;;;;;351252;28;1062;-53
2023/09/06 00:50:08;;;;;;;19.92;6.28;;;25.10;55.40;;;;;;351198;28;1107;-54
2023/09/06 00:50:20;;;;;;;22.10;6.70;;;25.10;55.40;;;;;;351148;28;1078;-54
2023/09/06 00:50:33;;;;;;;19.38;6.55;;;25.20;55.30;;;;;;351257;28;883;-53
2023/09/06 00:50:44;;;;;;;17.65;6.10;;;25.10;55.30;;;;;;351264;28;880;-54
2023/09/06 00:50:56;;;;;;;18.75;6.10;;;25.10;55.30;;;;;;351158;28;1006;-53
2023/09/06 00:51:08;;;;;;;22.17;6.50;;;25.20;55.20;;;;;;351254;28;1127;-53
2023/09/06 00:51:19;;;;;;;22.20;7.13;;;25.10;55.10;;;;;;351225;28;848;-53
2023/09/06 00:51:32;;;;;;;20.92;6.75;;;25.20;55.10;;;;;;351159;28;1015;-54
2023/09/06 00:51:43;;;;;;;19.45;6.32;;;25.20;55.10;;;;;;351257;28;1916;-53
2023/09/06 00:51:54;;;;;;;20.45;6.57;;;25.20;55.00;;;;;;351216;28;1094;-55
2023/09/06 00:52:04;;;;;;;19.70;6.87;;;25.20;54.90;;;;;;351130;28;1050;-53
2023/09/06 00:52:17;;;;;;;17.48;6.72;;;25.20;54.90;;;;;;351247;28;983;-54
2023/09/06 00:52:28;;;;;;;18.02;6.60;;;25.10;54.90;;;;;;351138;28;1909;-53
2023/09/06 00:52:40;;;;;;;19.08;6.40;;;25.10;54.90;;;;;;351200;28;1114;-54
2023/09/06 00:52:53;;;;;;;20.08;6.78;;;25.10;54.90;;;;;;351213;28;963;-54
2023/09/06 00:53:08;;;;;;;19.90;6.47;;;25.10;54.90;;;;;;351224;28;1078;-53
2023/09/06 00:53:21;;;;;;;17.50;5.93;;;25.20;54.90;;;;;;351111;28;984;-54
2023/09/06 00:53:32;;;;;;;19.23;6.90;;;25.20;54.90;;;;;;351249;28;861;-53
2023/09/06 00:53:43;;;;;;;19.58;7.43;;;25.10;54.90;;;;;;351219;28;876;-54
2023/09/06 00:53:54;;;;;;;18.00;7.20;;;25.20;55.00;;;;;;351156;28;996;-54
2023/09/06 00:54:05;;;;;;;16.70;6.72;;;25.10;55.00;;;;;;351201;28;1094;-54
2023/09/06 00:54:16;;;;;;;15.07;6.50;;;25.20;55.10;;;;;;351203;28;1079;-54
2023/09/06 00:54:27;;;;;;;16.23;6.15;;;25.20;55.20;;;;;;351172;28;984;-54
2023/09/06 00:54:39;;;;;;;15.75;6.35;;;25.10;55.20;;;;;;351206;28;1004;-55
2023/09/06 00:54:50;;;;;;;18.52;6.55;;;25.10;55.20;;;;;;351231;28;947;-53
2023/09/06 00:55:01;;;;;;;19.53;6.80;;;25.10;55.30;;;;;;351074;28;1300;-54
2023/09/06 00:55:12;;;;;;;19.88;6.40;;;25.20;55.20;;;;;;351219;28;1101;-54
2023/09/06 00:55:23;;;;;;;19.05;6.80;;;25.10;55.20;;;;;;351061;28;1299;-54
2023/09/06 00:55:37;;;;;;;18.55;6.80;;;25.20;55.30;;;;;;351142;28;1177;-53
2023/09/06 00:55:48;;;;;;;18.38;6.63;;;25.10;55.30;;;;;;351223;28;849;-54
2023/09/06 00:56:03;;;;;;;21.02;7.45;;;25.10;55.30;;;;;;351196;28;2034;-53
2023/09/06 00:56:17;;;;;;;22.15;7.32;;;25.20;55.20;;;;;;351173;28;1053;-54
2023/09/06 00:56:28;;;;;;;20.35;6.60;;;25.10;55.10;;;;;;351168;28;1123;-54
2023/09/06 00:56:39;;;;;;;19.00;6.78;;;25.10;55.10;;;;;;351215;28;1102;-54
2023/09/06 00:56:50;;;;;;;17.55;6.53;;;25.20;55.10;;;;;;351115;28;1530;-54
2023/09/06 00:57:01;;;;;;;18.13;6.75;;;25.10;55.10;;;;;;351206;28;999;-54
2023/09/06 00:57:12;;;;;;;19.40;6.63;;;25.10;55.20;;;;;;351211;28;1142;-54
2023/09/06 00:57:23;;;;;;;18.20;6.75;;;25.10;55.20;;;;;;351186;28;943;-54
2023/09/06 00:57:35;;;;;;;19.33;6.50;;;25.10;55.10;;;;;;351183;28;1094;-54
2023/09/06 00:57:46;;;;;;;19.25;6.60;;;25.10;55.10;;;;;;351212;28;1085;-54
2023/09/06 00:57:57;;;;;;;20.50;6.68;;;25.10;54.90;;;;;;351152;28;936;-53
2023/09/06 00:58:08;;;;;;;18.20;6.68;;;25.10;54.90;;;;;;351152;28;1341;-54
2023/09/06 00:58:20;;;;;;;18.65;6.47;;;25.10;55.00;;;;;;351242;28;955;-54
2023/09/06 00:58:32;;;;;;;17.30;6.43;;;25.10;55.00;;;;;;351179;28;927;-54
2023/09/06 00:58:44;;;;;;;17.55;6.50;;;25.10;55.10;;;;;;351223;28;979;-55
2023/09/06 00:58:55;;;;;;;18.63;6.82;;;25.10;55.10;;;;;;351217;28;1109;-54
2023/09/06 00:59:10;;;;;;;18.90;7.20;;;25.10;55.20;;;;;;351139;28;1066;-54
2023/09/06 00:59:23;;;;;;;16.45;7.35;;;25.10;55.20;;;;;;351177;28;1035;-53
2023/09/06 00:59:36;;;;;;;16.92;7.22;;;25.10;55.20;;;;;;351161;28;1274;-54
2023/09/06 00:59:50;;;;;;;18.58;6.45;;;25.10;55.20;;;;;;351147;28;1016;-54
2023/09/06 01:00:05;;;;;;;19.23;7.38;;;25.20;55.20;;;;;;351209;28;995;-54
2023/09/06 01:00:17;;;;;;;20.25;7.95;;;25.10;55.20;;;;;;351203;28;975;-54
2023/09/06 01:00:29;;;;;;;22.10;7.30;;;25.10;55.00;;;;;;351147;28;1096;-54
2023/09/06 01:00:40;;;;;;;23.52;7.03;;;25.10;54.90;;;;;;351154;28;1896;-54
2023/09/06 01:00:50;;;;;;;20.88;6.45;;;25.10;55.00;;;;;;351202;28;864;-54
2023/09/06 01:01:05;;;;;;;20.50;6.43;;;25.10;55.10;;;;;;351152;28;999;-54
2023/09/06 01:01:16;;;;;;;18.63;6.18;;;25.10;55.10;;;;;;351193;28;1078;-54
2023/09/06 01:01:28;;;;;;;20.13;6.45;;;25.10;55.20;;;;;;351142;28;1078;-54
2023/09/06 01:01:38;;;;;;;21.05;7.15;;;25.10;55.20;;;;;;351192;28;1204;-54
2023/09/06 01:01:49;;;;;;;21.20;7.70;;;25.10;55.20;;;;;;351141;28;1062;-54
2023/09/06 01:02:00;;;;;;;18.65;7.30;;;25.10;55.20;;;;;;351228;28;1072;-53
2023/09/06 01:02:10;;;;;;;21.83;7.50;;;25.10;55.20;;;;;;351132;28;910;-53
2023/09/06 01:02:21;;;;;;;21.90;7.22;;;25.10;55.30;;;;;;351227;28;832;-53